createdAt,value
2022-09-23T00:00:48.233Z,10.18
2022-09-23T00:03:16.418Z,12.32
2022-09-23T00:05:44.170Z,10.57
2022-09-23T00:08:12.546Z,14.70
2022-09-23T00:10:40.587Z,12.68
2022-09-23T00:13:09.819Z,11.60
2022-09-23T00:15:40.458Z,15.35
2022-09-23T00:18:08.227Z,12.05
2022-09-23T00:20:36.288Z,11.60
2022-09-23T00:23:04.487Z,9.40
2022-09-23T00:25:31.638Z,13.38
2022-09-23T00:27:59.091Z,10.15
2022-09-23T00:30:26.295Z,9.93
2022-09-23T00:32:53.587Z,8.38
2022-09-23T00:35:20.999Z,9.80
2022-09-23T00:37:48.166Z,11.43
2022-09-23T00:40:15.814Z,6.97
2022-09-23T00:42:48.040Z,11.07
2022-09-23T00:45:15.718Z,11.77
2022-09-23T00:47:53.502Z,8.48
2022-09-23T00:50:30.266Z,10.38
2022-09-23T00:52:58.750Z,5.70
2022-09-23T00:55:40.456Z,7.78
2022-09-23T00:58:11.276Z,8.48
2022-09-23T01:00:38.803Z,6.10
2022-09-23T01:03:07.324Z,9.52
2022-09-23T01:08:02.760Z,7.57
2022-09-23T01:10:56.703Z,7.25
2022-09-23T01:13:34.128Z,8.27
2022-09-23T01:16:04.405Z,6.88
2022-09-23T01:18:34.573Z,6.57
2022-09-23T01:21:01.667Z,10.88
2022-09-23T01:23:58.323Z,8.57
2022-09-23T01:26:44.102Z,11.30
2022-09-23T01:29:11.269Z,9.90
2022-09-23T01:31:59.658Z,8.05
2022-09-23T01:34:35.831Z,7.82
2022-09-23T01:37:24.826Z,10.20
2022-09-23T01:40:07.766Z,7.82
2022-09-23T01:42:41.742Z,9.52
2022-09-23T01:45:19.597Z,8.00
2022-09-23T01:47:49.996Z,11.50
2022-09-23T01:50:38.006Z,9.10
2022-09-23T01:53:13.438Z,8.80
2022-09-23T01:55:43.581Z,11.57
2022-09-23T01:58:13.991Z,6.95
2022-09-23T02:00:44.084Z,10.13
2022-09-23T02:03:17.591Z,6.15
2022-09-23T02:06:01.215Z,13.45
2022-09-23T02:08:32.408Z,8.57
2022-09-23T02:11:03.817Z,7.75
2022-09-23T02:13:34.717Z,10.00
2022-09-23T02:16:04.534Z,10.25
2022-09-23T02:18:43.748Z,9.15
2022-09-23T02:21:11.932Z,9.95
2022-09-23T02:23:43.059Z,12.20
2022-09-23T02:26:21.864Z,10.63
2022-09-23T02:28:52.710Z,7.88
2022-09-23T02:31:30.678Z,10.75
2022-09-23T02:34:20.614Z,10.65
2022-09-23T02:37:06.748Z,6.95
2022-09-23T02:39:40.689Z,7.72
2022-09-23T02:42:10.004Z,8.85
2022-09-23T02:44:37.627Z,11.93
2022-09-23T02:47:04.807Z,11.60
2022-09-23T02:49:32.736Z,8.63
2022-09-23T02:52:04.684Z,10.45
2022-09-23T02:54:34.216Z,10.38
2022-09-23T02:57:02.998Z,10.10
2022-09-23T02:59:30.770Z,10.93
2022-09-23T03:02:07.966Z,9.98
2022-09-23T03:04:53.511Z,10.02
2022-09-23T03:07:46.830Z,9.25
2022-09-23T03:10:22.173Z,9.82
2022-09-23T03:12:49.383Z,10.60
2022-09-23T03:15:27.115Z,11.82
2022-09-23T03:18:00.707Z,9.48
2022-09-23T03:20:30.948Z,8.90
2022-09-23T03:23:00.821Z,10.27
2022-09-23T03:25:30.843Z,11.90
2022-09-23T03:28:00.508Z,12.02
2022-09-23T03:30:28.012Z,9.02
2022-09-23T03:32:55.821Z,10.50
2022-09-23T03:35:25.330Z,11.75
2022-09-23T03:38:17.357Z,12.63
2022-09-23T03:40:47.689Z,11.02
2022-09-23T03:43:15.325Z,11.85
2022-09-23T03:45:42.847Z,11.32
2022-09-23T03:48:10.039Z,12.82
2022-09-23T03:50:37.307Z,11.70
2022-09-23T03:53:04.426Z,11.43
2022-09-23T03:55:32.242Z,10.75
2022-09-23T03:58:00.334Z,11.73
2022-09-23T04:00:27.728Z,11.15
2022-09-23T04:02:54.833Z,12.75
2022-09-23T04:05:21.983Z,17.65
2022-09-23T04:07:50.853Z,16.92
2022-09-23T04:10:18.108Z,10.40
2022-09-23T04:12:45.333Z,9.10
2022-09-23T04:15:12.465Z,8.13
2022-09-23T04:17:39.659Z,11.30
2022-09-23T04:20:07.048Z,11.95
2022-09-23T04:22:35.091Z,16.05
2022-09-23T04:25:02.342Z,14.88
2022-09-23T04:27:32.104Z,14.40
2022-09-23T04:30:01.413Z,13.93
2022-09-23T04:32:31.743Z,14.50
2022-09-23T04:34:59.146Z,11.35
2022-09-23T04:37:26.592Z,15.57
2022-09-23T04:39:54.602Z,17.90
2022-09-23T04:42:21.760Z,16.20
2022-09-23T04:44:48.981Z,14.10
2022-09-23T04:47:16.243Z,17.55
2022-09-23T04:49:43.342Z,15.25
2022-09-23T04:52:10.419Z,17.75
2022-09-23T04:54:37.521Z,16.38
2022-09-23T04:57:04.742Z,19.02
2022-09-23T04:59:32.006Z,18.88
2022-09-23T05:01:59.140Z,18.23
2022-09-23T05:04:26.296Z,16.35
2022-09-23T05:06:53.739Z,20.15
2022-09-23T05:09:20.846Z,18.05
2022-09-23T05:11:49.027Z,18.88
2022-09-23T05:14:16.309Z,17.40
2022-09-23T05:16:43.495Z,20.20
2022-09-23T05:19:11.724Z,20.60
2022-09-23T05:21:41.690Z,22.83
2022-09-23T05:24:09.831Z,16.77
2022-09-23T05:26:37.097Z,17.95
2022-09-23T05:29:04.212Z,21.25
2022-09-23T05:31:31.613Z,21.52
2022-09-23T05:33:59.841Z,19.05
2022-09-23T05:36:27.947Z,20.10
2022-09-23T05:38:56.823Z,21.75
2022-09-23T05:41:24.481Z,17.58
2022-09-23T05:43:52.601Z,19.75
2022-09-23T05:46:35.927Z,20.00
2022-09-23T05:49:04.368Z,17.27
2022-09-23T05:51:32.450Z,16.17
2022-09-23T05:54:00.176Z,16.88
2022-09-23T05:56:28.106Z,21.80
2022-09-23T05:58:57.759Z,17.08
2022-09-23T06:01:25.888Z,18.55
2022-09-23T06:03:53.659Z,17.30
2022-09-23T06:06:22.846Z,16.67
2022-09-23T06:08:49.939Z,15.38
2022-09-23T06:11:17.056Z,16.10
2022-09-23T06:13:45.574Z,14.95
2022-09-23T06:16:14.369Z,14.52
2022-09-23T06:18:42.796Z,17.55
2022-09-23T06:21:12.544Z,15.27
2022-09-23T06:23:41.898Z,17.02
2022-09-23T06:26:11.550Z,13.57
2022-09-23T06:28:40.126Z,14.23
2022-09-23T06:31:17.344Z,16.60
2022-09-23T06:33:45.015Z,18.17
2022-09-23T06:36:14.535Z,17.45
2022-09-23T06:38:53.477Z,18.02
2022-09-23T06:41:20.805Z,18.05
2022-09-23T06:43:48.108Z,15.35
2022-09-23T06:46:16.203Z,16.65
2022-09-23T06:48:46.165Z,22.27
2022-09-23T06:51:23.778Z,14.93
2022-09-23T06:53:51.403Z,16.70
2022-09-23T06:56:19.937Z,15.02
2022-09-23T07:01:19.112Z,17.50
2022-09-23T07:03:47.510Z,15.48
2022-09-23T07:06:14.728Z,17.38
2022-09-23T07:08:43.486Z,12.88
2022-09-23T07:11:13.181Z,17.38
2022-09-23T07:13:41.466Z,16.50
2022-09-23T07:16:08.931Z,14.82
2022-09-23T07:18:37.361Z,15.82
2022-09-23T07:21:08.397Z,13.60
2022-09-23T07:23:37.679Z,18.27
2022-09-23T07:26:05.031Z,11.80
2022-09-23T07:28:32.520Z,15.95
2022-09-23T07:31:03.491Z,17.85
2022-09-23T07:33:33.395Z,17.95
2022-09-23T07:36:04.853Z,15.18
2022-09-23T07:38:32.315Z,13.38
2022-09-23T07:41:03.903Z,14.20
2022-09-23T07:43:32.416Z,14.88
2022-09-23T07:46:00.491Z,18.17
2022-09-23T07:48:31.936Z,16.67
2022-09-23T07:51:07.572Z,13.02
2022-09-23T07:53:34.784Z,17.77
2022-09-23T07:56:04.464Z,15.85
2022-09-23T07:58:31.552Z,13.60
2022-09-23T08:01:11.967Z,13.80
2022-09-23T08:03:39.688Z,14.38
2022-09-23T08:06:11.979Z,17.85
2022-09-23T08:08:43.811Z,12.43
2022-09-23T08:11:11.946Z,13.40
2022-09-23T08:13:39.075Z,14.77
2022-09-23T08:16:06.769Z,12.00
2022-09-23T08:18:34.196Z,14.60
2022-09-23T08:21:01.510Z,10.15
2022-09-23T08:23:33.469Z,13.80
2022-09-23T08:26:02.088Z,13.57
2022-09-23T08:28:29.294Z,11.75
2022-09-23T08:30:57.123Z,13.23
2022-09-23T08:33:24.653Z,13.00
2022-09-23T08:35:52.489Z,12.38
2022-09-23T08:38:20.678Z,14.38
2022-09-23T08:40:49.430Z,11.98
2022-09-23T08:43:30.649Z,14.15
2022-09-23T08:46:00.280Z,13.23
2022-09-23T08:48:33.245Z,11.88
2022-09-23T08:51:03.004Z,12.63
2022-09-23T08:53:33.049Z,13.18
2022-09-23T08:56:01.381Z,12.32
2022-09-23T09:01:16.209Z,12.30
2022-09-23T09:04:12.878Z,12.07
2022-09-23T09:06:53.464Z,15.15
2022-09-23T09:09:40.176Z,11.98
2022-09-23T09:12:31.875Z,14.90
2022-09-23T09:15:02.689Z,13.50
2022-09-23T09:17:36.543Z,13.15
2022-09-23T09:20:18.907Z,13.45
2022-09-23T09:22:57.699Z,13.60
2022-09-23T09:25:33.490Z,13.82
2022-09-23T09:28:01.830Z,13.75
2022-09-23T09:30:29.005Z,17.80
2022-09-23T09:33:00.687Z,14.18
2022-09-23T09:35:39.018Z,15.43
2022-09-23T09:38:06.162Z,13.55
2022-09-23T09:40:34.567Z,14.60
2022-09-23T09:43:04.674Z,14.40
2022-09-23T09:45:33.773Z,13.32
2022-09-23T09:48:07.153Z,13.90
2022-09-23T09:50:53.248Z,14.90
2022-09-23T09:53:22.459Z,14.82
2022-09-23T09:56:03.707Z,14.00
2022-09-23T09:58:41.021Z,13.73
2022-09-23T10:01:08.453Z,11.60
2022-09-23T10:03:40.331Z,12.80
2022-09-23T10:06:14.244Z,12.50
2022-09-23T10:08:41.534Z,12.00
2022-09-23T10:11:15.825Z,12.10
2022-09-23T10:16:10.321Z,12.23
2022-09-23T10:18:38.950Z,12.15
2022-09-23T10:21:10.773Z,12.73
2022-09-23T10:23:42.874Z,13.00
2022-09-23T10:26:10.271Z,11.90
2022-09-23T10:28:37.331Z,12.10
2022-09-23T10:31:09.973Z,13.25
2022-09-23T10:34:05.825Z,13.07
2022-09-23T10:36:33.545Z,12.57
2022-09-23T10:39:21.157Z,11.35
2022-09-23T10:42:14.099Z,10.95
2022-09-23T10:45:03.131Z,12.07
2022-09-23T10:47:30.235Z,13.63
2022-09-23T10:49:58.648Z,13.07
2022-09-23T10:52:36.135Z,10.40
2022-09-23T10:55:03.227Z,11.75
2022-09-23T10:57:41.255Z,12.25
2022-09-23T11:00:24.009Z,9.57
2022-09-23T11:03:09.945Z,12.93
2022-09-23T11:05:55.859Z,11.82
2022-09-23T11:08:42.676Z,10.82
2022-09-23T11:11:11.496Z,9.40
2022-09-23T11:13:44.863Z,11.20
2022-09-23T11:16:32.451Z,9.20
2022-09-23T11:18:59.806Z,10.85
2022-09-23T11:21:35.108Z,9.88
2022-09-23T11:24:09.220Z,8.82
2022-09-23T11:26:36.625Z,9.90
2022-09-23T11:29:22.620Z,6.82
2022-09-23T11:31:59.815Z,11.05
2022-09-23T11:34:34.379Z,9.45
2022-09-23T11:37:05.790Z,9.35
2022-09-23T11:39:41.796Z,9.60
2022-09-23T11:42:14.111Z,7.30
2022-09-23T11:44:44.601Z,7.55
2022-09-23T11:47:14.792Z,11.45
2022-09-23T11:49:44.396Z,11.63
2022-09-23T11:52:21.589Z,7.20
2022-09-23T11:55:17.786Z,10.57
2022-09-23T11:57:54.820Z,11.68
2022-09-23T12:00:23.817Z,9.68
2022-09-23T12:03:05.995Z,7.85
2022-09-23T12:05:47.293Z,7.90
2022-09-23T12:08:14.514Z,7.03
2022-09-23T12:11:07.865Z,7.57
2022-09-23T12:13:42.096Z,9.02
2022-09-23T12:18:47.573Z,8.55
2022-09-23T12:21:33.039Z,7.30
2022-09-23T12:24:19.417Z,8.07
2022-09-23T12:26:50.218Z,8.25
2022-09-23T12:29:17.428Z,8.60
2022-09-23T12:31:46.864Z,9.52
2022-09-23T12:34:22.978Z,8.82
2022-09-23T12:36:50.141Z,9.85
2022-09-23T12:39:18.469Z,8.35
2022-09-23T12:41:49.161Z,7.60
2022-09-23T12:44:30.438Z,7.70
2022-09-23T12:47:21.274Z,10.73
2022-09-23T12:49:50.885Z,9.02
2022-09-23T12:52:18.176Z,15.02
2022-09-23T12:54:45.273Z,8.98
2022-09-23T12:57:12.357Z,7.28
2022-09-23T12:59:56.327Z,11.88
2022-09-23T13:02:26.498Z,9.77
2022-09-23T13:05:15.577Z,9.45
2022-09-23T13:07:46.879Z,8.13
2022-09-23T13:10:32.828Z,7.25
2022-09-23T13:13:01.359Z,9.77
2022-09-23T13:15:28.876Z,9.60
2022-09-23T13:18:14.942Z,9.02
2022-09-23T13:20:42.222Z,8.10
2022-09-23T13:23:12.566Z,7.95
2022-09-23T13:25:40.802Z,8.30
2022-09-23T13:28:14.394Z,9.98
2022-09-23T13:30:49.178Z,8.80
2022-09-23T13:33:37.904Z,8.43
2022-09-23T13:36:10.871Z,9.27
2022-09-23T13:38:38.011Z,10.82
2022-09-23T13:41:11.116Z,8.25
2022-09-23T13:43:42.613Z,10.40
2022-09-23T13:46:13.251Z,8.90
2022-09-23T13:48:41.370Z,13.38
2022-09-23T13:51:11.136Z,8.00
2022-09-23T13:53:38.882Z,7.47
2022-09-23T13:56:07.479Z,7.75
2022-09-23T13:58:35.376Z,6.70
2022-09-23T14:01:02.635Z,8.73
2022-09-23T14:03:36.777Z,8.07
2022-09-23T14:06:14.682Z,10.63
2022-09-23T14:08:44.549Z,8.20
2022-09-23T14:11:15.913Z,9.73
2022-09-23T14:13:43.564Z,11.23
2022-09-23T14:16:12.630Z,9.57
2022-09-23T14:18:41.194Z,11.80
2022-09-23T14:21:26.316Z,10.55
2022-09-23T14:23:53.416Z,26.98
2022-09-23T14:26:20.928Z,25.65
2022-09-23T14:28:48.476Z,14.50
2022-09-23T14:31:15.682Z,13.10
2022-09-23T14:33:43.558Z,12.43
2022-09-23T14:36:33.066Z,12.10
2022-09-23T14:39:06.963Z,14.10
2022-09-23T14:41:35.696Z,14.98
2022-09-23T14:44:03.520Z,13.90
2022-09-23T14:46:33.142Z,13.13
2022-09-23T14:49:09.042Z,12.85
2022-09-23T14:51:38.115Z,15.55
2022-09-23T14:54:28.589Z,12.77
2022-09-23T14:56:55.914Z,13.57
2022-09-23T14:59:34.436Z,16.77
2022-09-23T15:02:01.516Z,14.60
2022-09-23T15:04:31.340Z,12.38
2022-09-23T15:07:00.143Z,14.98
2022-09-23T15:09:36.388Z,12.80
2022-09-23T15:12:06.435Z,14.40
2022-09-23T15:14:39.855Z,13.38
2022-09-23T15:19:35.283Z,11.95
2022-09-23T15:22:02.652Z,15.52
2022-09-23T15:24:35.180Z,11.63
2022-09-23T15:27:02.810Z,11.02
2022-09-23T15:29:31.382Z,10.57
2022-09-23T15:31:59.389Z,11.55
2022-09-23T15:34:26.545Z,11.98
2022-09-23T15:36:54.200Z,12.52
2022-09-23T15:39:21.419Z,9.93
2022-09-23T15:41:50.507Z,11.52
2022-09-23T15:44:21.841Z,12.43
2022-09-23T15:46:50.209Z,12.23
2022-09-23T15:49:32.641Z,13.13
2022-09-23T15:52:00.617Z,12.02
2022-09-23T15:54:32.484Z,11.80
2022-09-23T15:57:01.117Z,12.75
2022-09-23T15:59:28.780Z,11.55
2022-09-23T16:01:56.925Z,12.43
2022-09-23T16:04:26.081Z,15.23
2022-09-23T16:06:53.861Z,11.90
2022-09-23T16:09:21.028Z,12.07
2022-09-23T16:11:49.641Z,13.30
2022-09-23T16:14:17.894Z,17.60
2022-09-23T16:16:47.588Z,16.98
2022-09-23T16:19:15.672Z,13.93
2022-09-23T16:21:43.498Z,15.93
2022-09-23T16:24:16.001Z,18.30
2022-09-23T16:26:43.606Z,18.80
2022-09-23T16:29:14.023Z,15.40
2022-09-23T16:31:41.391Z,16.15
2022-09-23T16:34:10.899Z,22.50
2022-09-23T16:36:42.400Z,18.42
2022-09-23T16:39:12.258Z,17.58
2022-09-23T16:41:39.655Z,15.70
2022-09-23T16:44:09.322Z,19.15
2022-09-23T16:46:42.741Z,21.75
2022-09-23T16:49:12.067Z,18.92
2022-09-23T16:51:39.337Z,19.08
2022-09-23T16:54:10.060Z,21.35
2022-09-23T16:56:38.174Z,17.45
2022-09-23T16:59:05.849Z,19.38
2022-09-23T17:01:51.740Z,20.92
2022-09-23T17:04:19.593Z,21.20
2022-09-23T17:07:05.956Z,20.83
2022-09-23T17:09:34.276Z,22.00
2022-09-23T17:12:04.471Z,24.23
2022-09-23T17:14:31.764Z,24.13
2022-09-23T17:16:59.829Z,23.35
2022-09-23T17:19:27.066Z,26.27
2022-09-23T17:21:54.329Z,24.77
2022-09-23T17:24:21.674Z,25.05
2022-09-23T17:26:52.785Z,26.40
2022-09-23T17:29:24.810Z,26.58
2022-09-23T17:31:52.465Z,25.75
2022-09-23T17:34:19.707Z,26.45
2022-09-23T17:36:46.886Z,24.02
2022-09-23T17:39:14.046Z,26.30
2022-09-23T17:41:41.122Z,23.05
2022-09-23T17:44:11.355Z,25.65
2022-09-23T17:46:38.561Z,24.50
2022-09-23T17:49:06.762Z,25.88
2022-09-23T17:51:34.412Z,25.02
2022-09-23T17:54:01.532Z,24.52
2022-09-23T17:56:29.949Z,30.77
2022-09-23T17:59:00.745Z,27.90
2022-09-23T18:01:28.073Z,26.40
2022-09-23T18:03:56.166Z,26.77
2022-09-23T18:06:24.321Z,30.38
2022-09-23T18:08:52.232Z,32.45
2022-09-23T18:11:19.484Z,32.55
2022-09-23T18:13:53.867Z,27.20
2022-09-23T18:16:22.633Z,23.95
2022-09-23T18:18:53.726Z,23.58
2022-09-23T18:21:21.428Z,23.10
2022-09-23T18:23:48.737Z,33.88
2022-09-23T18:26:16.701Z,27.58
2022-09-23T18:28:44.023Z,25.80
2022-09-23T18:31:11.659Z,26.92
2022-09-23T18:33:39.138Z,26.55
2022-09-23T18:36:06.539Z,22.27
2022-09-23T18:38:33.971Z,22.40
2022-09-23T18:41:01.468Z,19.10
2022-09-23T18:43:39.022Z,27.08
2022-09-23T18:46:11.565Z,22.77
2022-09-23T18:48:57.666Z,26.55
2022-09-23T18:51:26.157Z,23.67
2022-09-23T18:56:26.607Z,24.05
2022-09-23T18:58:55.106Z,24.55
2022-09-23T19:03:49.717Z,21.85
2022-09-23T19:06:21.126Z,25.52
2022-09-23T19:08:50.269Z,27.33
2022-09-23T19:11:17.539Z,18.08
2022-09-23T19:13:45.261Z,23.17
2022-09-23T19:16:13.789Z,22.38
2022-09-23T19:18:41.805Z,24.23
2022-09-23T19:21:12.639Z,22.75
2022-09-23T19:23:40.531Z,21.63
2022-09-23T19:26:09.273Z,25.85
2022-09-23T19:28:36.859Z,21.92
2022-09-23T19:31:14.023Z,24.10
2022-09-23T19:33:41.399Z,24.30
2022-09-23T19:36:09.553Z,27.75
2022-09-23T19:38:37.988Z,20.42
2022-09-23T19:41:06.364Z,19.98
2022-09-23T19:43:33.505Z,22.35
2022-09-23T19:46:00.623Z,25.48
2022-09-23T19:48:27.807Z,27.00
2022-09-23T19:50:55.090Z,24.52
2022-09-23T19:53:27.327Z,28.83
2022-09-23T19:55:56.329Z,28.85
2022-09-23T19:58:23.471Z,35.13
2022-09-23T20:00:50.635Z,27.42
2022-09-23T20:03:18.292Z,18.52
2022-09-23T20:05:45.497Z,23.25
2022-09-23T20:08:12.653Z,28.52
2022-09-23T20:10:39.883Z,24.65
2022-09-23T20:13:07.523Z,14.45
2022-09-23T20:15:34.627Z,25.55
2022-09-23T20:18:01.735Z,26.15
2022-09-23T20:20:28.825Z,20.40
2022-09-23T20:22:56.174Z,24.02
2022-09-23T20:25:23.249Z,25.27
2022-09-23T20:27:52.640Z,21.55
2022-09-23T20:30:20.527Z,23.27
2022-09-23T20:32:49.165Z,25.30
2022-09-23T20:35:16.557Z,22.55
2022-09-23T20:37:44.639Z,24.20
2022-09-23T20:40:11.875Z,26.35
2022-09-23T20:42:38.981Z,27.95
2022-09-23T20:45:14.059Z,21.00
2022-09-23T20:47:41.292Z,26.55
2022-09-23T20:50:08.597Z,21.25
2022-09-23T20:52:36.249Z,26.60
2022-09-23T20:55:03.707Z,20.40
2022-09-23T20:57:31.638Z,26.27
2022-09-23T20:59:58.754Z,23.98
2022-09-23T21:02:27.054Z,22.90
2022-09-23T21:04:56.832Z,27.33
2022-09-23T21:07:23.959Z,26.13
2022-09-23T21:09:51.083Z,25.40
2022-09-23T21:12:18.258Z,20.58
2022-09-23T21:14:46.834Z,28.27
2022-09-23T21:17:14.131Z,26.90
2022-09-23T21:19:41.528Z,31.13
2022-09-23T21:22:09.517Z,25.58
2022-09-23T21:27:23.922Z,26.83
2022-09-23T21:29:51.132Z,18.90
2022-09-23T21:32:18.218Z,28.63
2022-09-23T21:34:45.267Z,24.95
2022-09-23T21:37:12.475Z,17.58
2022-09-23T21:39:39.766Z,26.92
2022-09-23T21:42:06.847Z,15.60
2022-09-23T21:44:34.254Z,27.02
2022-09-23T21:47:01.510Z,26.33
2022-09-23T21:49:28.707Z,29.60
2022-09-23T21:51:58.954Z,23.20
2022-09-23T21:54:26.315Z,27.52
2022-09-23T21:56:54.060Z,27.67
2022-09-23T21:59:21.185Z,28.83
2022-09-23T22:01:53.992Z,32.80
2022-09-23T22:04:21.821Z,26.20
2022-09-23T22:06:49.133Z,28.92
2022-09-23T22:09:17.666Z,33.38
2022-09-23T22:14:30.685Z,28.00
2022-09-23T22:17:02.514Z,32.45
2022-09-23T22:19:32.961Z,35.47
2022-09-23T22:22:00.114Z,33.47
2022-09-23T22:24:27.215Z,34.90
2022-09-23T22:26:54.381Z,31.48
2022-09-23T22:29:40.067Z,32.22
2022-09-23T22:32:29.566Z,36.08
2022-09-23T22:34:56.771Z,31.33
2022-09-23T22:37:34.470Z,28.88
2022-09-23T22:40:02.371Z,38.60
2022-09-23T22:42:30.970Z,37.08
2022-09-23T22:44:58.171Z,35.40
2022-09-23T22:47:25.368Z,34.22
2022-09-23T22:49:55.422Z,36.13
2022-09-23T22:52:24.468Z,38.88
2022-09-23T22:54:52.941Z,37.42
2022-09-23T22:57:20.433Z,36.83
2022-09-23T22:59:47.998Z,34.95
2022-09-23T23:02:16.328Z,41.50
2022-09-23T23:04:45.171Z,31.63
2022-09-23T23:07:13.403Z,34.50
2022-09-23T23:09:40.557Z,36.05
2022-09-23T23:12:07.851Z,36.45
2022-09-23T23:14:36.934Z,31.95
2022-09-23T23:17:07.571Z,33.55
2022-09-23T23:19:35.112Z,30.75
2022-09-23T23:22:02.341Z,31.88
2022-09-23T23:24:29.558Z,27.30
2022-09-23T23:26:56.891Z,39.22
2022-09-23T23:29:24.230Z,28.67
2022-09-23T23:31:51.440Z,28.77
2022-09-23T23:34:19.762Z,24.80
2022-09-23T23:36:54.761Z,23.33
2022-09-23T23:39:26.137Z,26.58
2022-09-23T23:41:54.821Z,32.78
2022-09-23T23:44:23.592Z,28.10
2022-09-23T23:46:50.807Z,30.30
2022-09-23T23:49:18.310Z,28.65
2022-09-23T23:51:45.614Z,32.33
2022-09-23T23:54:13.021Z,29.63
2022-09-23T23:56:40.230Z,28.70
2022-09-23T23:59:07.472Z,31.95
